sensor_id;sensor_type;location;lat;lon;timestamp;pressure;altitude;pressure_sealevel;temperature;humidity
61814;BME280;57055;-35.296;149.168;2023-04-23T00:00:40;96760.17;;;12.07;62.59
61814;BME280;57055;-35.296;149.168;2023-04-23T00:03:09;96763.10;;;12.18;63.94
61814;BME280;57055;-35.296;149.168;2023-04-23T00:05:41;96768.01;;;12.24;63.89
61814;BME280;57055;-35.296;149.168;2023-04-23T00:08:11;96763.54;;;12.34;63.84
61814;BME280;57055;-35.296;149.168;2023-04-23T00:10:40;96765.15;;;12.42;63.16
61814;BME280;57055;-35.296;149.168;2023-04-23T00:13:09;96764.38;;;12.49;63.19
61814;BME280;57055;-35.296;149.168;2023-04-23T00:15:38;96763.50;;;12.39;62.72
61814;BME280;57055;-35.296;149.168;2023-04-23T00:18:07;96763.67;;;12.75;61.52
61814;BME280;57055;-35.296;149.168;2023-04-23T00:20:36;96758.41;;;12.69;61.45
61814;BME280;57055;-35.296;149.168;2023-04-23T00:23:05;96758.82;;;12.58;61.90
61814;BME280;57055;-35.296;149.168;2023-04-23T00:25:34;96758.73;;;12.70;61.55
61814;BME280;57055;-35.296;149.168;2023-04-23T00:28:03;96758.12;;;12.79;62.27
61814;BME280;57055;-35.296;149.168;2023-04-23T00:30:32;96747.95;;;12.78;62.44
61814;BME280;57055;-35.296;149.168;2023-04-23T00:33:03;96741.68;;;13.32;62.48
61814;BME280;57055;-35.296;149.168;2023-04-23T00:35:32;96739.67;;;13.00;61.48
61814;BME280;57055;-35.296;149.168;2023-04-23T00:38:00;96742.00;;;13.16;60.93
61814;BME280;57055;-35.296;149.168;2023-04-23T00:40:30;96738.21;;;13.39;60.85
61814;BME280;57055;-35.296;149.168;2023-04-23T00:42:59;96737.30;;;13.52;60.62
61814;BME280;57055;-35.296;149.168;2023-04-23T00:45:28;96738.61;;;13.65;60.20
61814;BME280;57055;-35.296;149.168;2023-04-23T00:47:58;96738.44;;;13.76;60.77
61814;BME280;57055;-35.296;149.168;2023-04-23T00:50:27;96736.14;;;13.50;60.22
61814;BME280;57055;-35.296;149.168;2023-04-23T00:52:56;96740.27;;;13.76;60.49
61814;BME280;57055;-35.296;149.168;2023-04-23T00:55:25;96743.11;;;14.06;60.34
61814;BME280;57055;-35.296;149.168;2023-04-23T00:57:55;96741.98;;;14.06;60.11
61814;BME280;57055;-35.296;149.168;2023-04-23T01:00:24;96737.33;;;14.14;59.80
61814;BME280;57055;-35.296;149.168;2023-04-23T01:02:52;96735.22;;;13.95;59.69
61814;BME280;57055;-35.296;149.168;2023-04-23T01:05:23;96737.99;;;13.93;59.74
61814;BME280;57055;-35.296;149.168;2023-04-23T01:07:52;96736.91;;;14.21;59.28
61814;BME280;57055;-35.296;149.168;2023-04-23T01:10:21;96736.87;;;14.39;59.06
61814;BME280;57055;-35.296;149.168;2023-04-23T01:12:51;96728.38;;;14.37;58.44
61814;BME280;57055;-35.296;149.168;2023-04-23T01:15:21;96726.68;;;14.39;58.02
61814;BME280;57055;-35.296;149.168;2023-04-23T01:17:49;96726.20;;;14.44;58.12
61814;BME280;57055;-35.296;149.168;2023-04-23T01:20:18;96721.79;;;14.64;57.97
61814;BME280;57055;-35.296;149.168;2023-04-23T01:22:47;96721.29;;;14.79;57.82
61814;BME280;57055;-35.296;149.168;2023-04-23T01:25:16;96721.03;;;14.86;57.98
61814;BME280;57055;-35.296;149.168;2023-04-23T01:27:45;96717.42;;;14.79;57.86
61814;BME280;57055;-35.296;149.168;2023-04-23T01:30:15;96716.16;;;14.46;57.88
61814;BME280;57055;-35.296;149.168;2023-04-23T01:32:44;96714.34;;;14.38;58.10
61814;BME280;57055;-35.296;149.168;2023-04-23T01:35:15;96710.78;;;14.70;57.71
61814;BME280;57055;-35.296;149.168;2023-04-23T01:37:46;96713.00;;;14.52;57.59
61814;BME280;57055;-35.296;149.168;2023-04-23T01:40:16;96715.27;;;14.81;57.68
61814;BME280;57055;-35.296;149.168;2023-04-23T01:42:45;96714.54;;;14.87;57.39
61814;BME280;57055;-35.296;149.168;2023-04-23T01:45:14;96710.64;;;14.60;57.12
61814;BME280;57055;-35.296;149.168;2023-04-23T01:47:44;96699.88;;;14.87;56.98
61814;BME280;57055;-35.296;149.168;2023-04-23T01:50:13;96696.09;;;14.95;57.03
61814;BME280;57055;-35.296;149.168;2023-04-23T01:52:42;96696.40;;;15.15;56.83
61814;BME280;57055;-35.296;149.168;2023-04-23T01:55:10;96690.06;;;15.37;56.31
61814;BME280;57055;-35.296;149.168;2023-04-23T01:57:40;96684.73;;;15.19;55.90
61814;BME280;57055;-35.296;149.168;2023-04-23T02:00:11;96684.52;;;15.17;55.44
61814;BME280;57055;-35.296;149.168;2023-04-23T02:02:41;96680.53;;;15.27;55.40
61814;BME280;57055;-35.296;149.168;2023-04-23T02:05:12;96674.86;;;15.55;54.92
61814;BME280;57055;-35.296;149.168;2023-04-23T02:07:41;96673.27;;;15.41;55.09
61814;BME280;57055;-35.296;149.168;2023-04-23T02:10:12;96668.41;;;15.55;55.94
61814;BME280;57055;-35.296;149.168;2023-04-23T02:12:42;96669.03;;;15.69;55.23
61814;BME280;57055;-35.296;149.168;2023-04-23T02:15:12;96664.20;;;15.67;53.66
61814;BME280;57055;-35.296;149.168;2023-04-23T02:17:41;96666.34;;;15.76;54.13
61814;BME280;57055;-35.296;149.168;2023-04-23T02:20:10;96661.02;;;15.92;54.16
61814;BME280;57055;-35.296;149.168;2023-04-23T02:22:41;96662.94;;;15.77;54.00
61814;BME280;57055;-35.296;149.168;2023-04-23T02:25:10;96659.75;;;16.14;52.84
61814;BME280;57055;-35.296;149.168;2023-04-23T02:27:39;96655.09;;;15.75;52.54
61814;BME280;57055;-35.296;149.168;2023-04-23T02:30:09;96651.51;;;15.93;52.92
61814;BME280;57055;-35.296;149.168;2023-04-23T02:32:40;96649.95;;;15.96;53.01
61814;BME280;57055;-35.296;149.168;2023-04-23T02:35:09;96644.34;;;16.03;53.34
61814;BME280;57055;-35.296;149.168;2023-04-23T02:37:38;96644.48;;;16.37;54.13
61814;BME280;57055;-35.296;149.168;2023-04-23T02:40:07;96635.99;;;16.17;52.25
61814;BME280;57055;-35.296;149.168;2023-04-23T02:42:37;96629.74;;;16.54;51.14
61814;BME280;57055;-35.296;149.168;2023-04-23T02:45:06;96625.39;;;16.44;51.12
61814;BME280;57055;-35.296;149.168;2023-04-23T02:47:35;96621.83;;;16.70;50.93
61814;BME280;57055;-35.296;149.168;2023-04-23T02:50:06;96620.80;;;16.59;50.25
61814;BME280;57055;-35.296;149.168;2023-04-23T02:52:34;96618.21;;;16.79;50.72
61814;BME280;57055;-35.296;149.168;2023-04-23T02:55:03;96618.04;;;17.06;49.96
61814;BME280;57055;-35.296;149.168;2023-04-23T02:57:32;96608.70;;;17.03;49.26
61814;BME280;57055;-35.296;149.168;2023-04-23T03:00:01;96609.99;;;17.29;49.36
61814;BME280;57055;-35.296;149.168;2023-04-23T03:02:30;96607.95;;;17.26;49.43
61814;BME280;57055;-35.296;149.168;2023-04-23T03:04:59;96600.47;;;17.49;48.83
61814;BME280;57055;-35.296;149.168;2023-04-23T03:07:28;96601.60;;;17.65;48.66
61814;BME280;57055;-35.296;149.168;2023-04-23T03:09:57;96599.51;;;17.96;47.98
61814;BME280;57055;-35.296;149.168;2023-04-23T03:12:25;96595.29;;;17.58;47.62
61814;BME280;57055;-35.296;149.168;2023-04-23T03:14:54;96591.09;;;17.55;47.63
61814;BME280;57055;-35.296;149.168;2023-04-23T03:17:22;96585.89;;;17.23;48.42
61814;BME280;57055;-35.296;149.168;2023-04-23T03:19:51;96583.33;;;17.44;48.60
61814;BME280;57055;-35.296;149.168;2023-04-23T03:22:20;96584.99;;;17.42;47.80
61814;BME280;57055;-35.296;149.168;2023-04-23T03:24:49;96584.59;;;17.83;47.93
61814;BME280;57055;-35.296;149.168;2023-04-23T03:27:17;96586.41;;;17.53;48.01
61814;BME280;57055;-35.296;149.168;2023-04-23T03:29:46;96587.06;;;17.50;47.87
61814;BME280;57055;-35.296;149.168;2023-04-23T03:32:14;96585.27;;;17.46;47.93
61814;BME280;57055;-35.296;149.168;2023-04-23T03:34:44;96585.30;;;17.26;48.56
61814;BME280;57055;-35.296;149.168;2023-04-23T03:37:13;96584.14;;;16.99;47.69
61814;BME280;57055;-35.296;149.168;2023-04-23T03:39:42;96585.11;;;16.73;48.72
61814;BME280;57055;-35.296;149.168;2023-04-23T03:42:10;96582.27;;;16.69;48.63
61814;BME280;57055;-35.296;149.168;2023-04-23T03:44:39;96584.75;;;16.82;48.31
61814;BME280;57055;-35.296;149.168;2023-04-23T03:47:07;96585.93;;;16.88;48.29
61814;BME280;57055;-35.296;149.168;2023-04-23T03:49:36;96584.94;;;16.83;48.06
61814;BME280;57055;-35.296;149.168;2023-04-23T03:52:04;96583.95;;;17.19;48.08
61814;BME280;57055;-35.296;149.168;2023-04-23T03:54:34;96582.13;;;17.20;48.20
61814;BME280;57055;-35.296;149.168;2023-04-23T03:57:02;96583.38;;;17.04;48.50
61814;BME280;57055;-35.296;149.168;2023-04-23T03:59:31;96581.12;;;17.14;48.53
61814;BME280;57055;-35.296;149.168;2023-04-23T04:01:59;96581.55;;;16.89;49.04
61814;BME280;57055;-35.296;149.168;2023-04-23T04:04:28;96581.19;;;16.84;49.49
61814;BME280;57055;-35.296;149.168;2023-04-23T04:06:57;96581.91;;;16.85;50.06
61814;BME280;57055;-35.296;149.168;2023-04-23T04:09:26;96581.60;;;16.90;49.55
61814;BME280;57055;-35.296;149.168;2023-04-23T04:11:56;96583.19;;;16.95;49.18
61814;BME280;57055;-35.296;149.168;2023-04-23T04:14:25;96584.36;;;17.20;48.52
61814;BME280;57055;-35.296;149.168;2023-04-23T04:16:53;96583.67;;;17.26;47.97
61814;BME280;57055;-35.296;149.168;2023-04-23T04:19:23;96580.69;;;17.31;47.88
61814;BME280;57055;-35.296;149.168;2023-04-23T04:21:52;96579.70;;;17.45;47.85
61814;BME280;57055;-35.296;149.168;2023-04-23T04:24:20;96582.26;;;17.26;47.81
61814;BME280;57055;-35.296;149.168;2023-04-23T04:26:49;96584.06;;;17.13;48.01
61814;BME280;57055;-35.296;149.168;2023-04-23T04:29:18;96584.54;;;16.92;47.79
61814;BME280;57055;-35.296;149.168;2023-04-23T04:31:47;96581.49;;;16.97;47.91
61814;BME280;57055;-35.296;149.168;2023-04-23T04:34:16;96584.35;;;17.06;47.65
61814;BME280;57055;-35.296;149.168;2023-04-23T04:36:45;96583.28;;;16.97;47.51
61814;BME280;57055;-35.296;149.168;2023-04-23T04:39:15;96584.11;;;17.03;47.45
61814;BME280;57055;-35.296;149.168;2023-04-23T04:41:44;96581.06;;;17.04;47.40
61814;BME280;57055;-35.296;149.168;2023-04-23T04:44:13;96585.33;;;17.25;46.97
61814;BME280;57055;-35.296;149.168;2023-04-23T04:46:42;96586.22;;;17.00;46.68
61814;BME280;57055;-35.296;149.168;2023-04-23T04:49:11;96590.16;;;17.19;47.42
61814;BME280;57055;-35.296;149.168;2023-04-23T04:51:41;96589.53;;;17.16;47.50
61814;BME280;57055;-35.296;149.168;2023-04-23T04:54:10;96590.12;;;16.82;47.54
61814;BME280;57055;-35.296;149.168;2023-04-23T04:56:38;96590.02;;;16.90;46.95
61814;BME280;57055;-35.296;149.168;2023-04-23T04:59:07;96597.18;;;16.91;47.29
61814;BME280;57055;-35.296;149.168;2023-04-23T05:01:35;96592.07;;;16.98;47.54
61814;BME280;57055;-35.296;149.168;2023-04-23T05:04:04;96591.92;;;17.05;47.49
61814;BME280;57055;-35.296;149.168;2023-04-23T05:06:33;96591.36;;;17.05;46.96
61814;BME280;57055;-35.296;149.168;2023-04-23T05:09:02;96587.98;;;17.04;46.69
61814;BME280;57055;-35.296;149.168;2023-04-23T05:11:31;96588.26;;;17.03;46.92
61814;BME280;57055;-35.296;149.168;2023-04-23T05:14:00;96585.88;;;17.00;46.68
61814;BME280;57055;-35.296;149.168;2023-04-23T05:16:29;96585.62;;;17.06;46.51
61814;BME280;57055;-35.296;149.168;2023-04-23T05:18:58;96584.05;;;17.27;45.94
61814;BME280;57055;-35.296;149.168;2023-04-23T05:21:27;96585.04;;;17.34;46.08
61814;BME280;57055;-35.296;149.168;2023-04-23T05:23:56;96584.17;;;17.07;45.11
61814;BME280;57055;-35.296;149.168;2023-04-23T05:26:24;96585.62;;;17.41;45.33
61814;BME280;57055;-35.296;149.168;2023-04-23T05:28:53;96584.07;;;17.42;45.40
61814;BME280;57055;-35.296;149.168;2023-04-23T05:31:22;96581.53;;;17.32;46.15
61814;BME280;57055;-35.296;149.168;2023-04-23T05:33:50;96585.22;;;17.37;46.93
61814;BME280;57055;-35.296;149.168;2023-04-23T05:36:19;96586.04;;;17.04;46.60
61814;BME280;57055;-35.296;149.168;2023-04-23T05:38:48;96584.50;;;16.96;46.86
61814;BME280;57055;-35.296;149.168;2023-04-23T05:41:17;96585.62;;;17.13;46.96
61814;BME280;57055;-35.296;149.168;2023-04-23T05:43:46;96590.65;;;17.13;47.29
61814;BME280;57055;-35.296;149.168;2023-04-23T05:46:15;96590.84;;;16.94;47.27
61814;BME280;57055;-35.296;149.168;2023-04-23T05:48:43;96590.14;;;17.18;47.55
61814;BME280;57055;-35.296;149.168;2023-04-23T05:51:12;96589.09;;;17.17;47.52
61814;BME280;57055;-35.296;149.168;2023-04-23T05:53:41;96588.19;;;17.17;46.67
61814;BME280;57055;-35.296;149.168;2023-04-23T05:56:10;96591.74;;;17.19;46.62
61814;BME280;57055;-35.296;149.168;2023-04-23T05:58:38;96591.17;;;17.16;46.90
61814;BME280;57055;-35.296;149.168;2023-04-23T06:01:07;96589.50;;;17.02;47.45
61814;BME280;57055;-35.296;149.168;2023-04-23T06:03:35;96589.05;;;17.09;46.34
61814;BME280;57055;-35.296;149.168;2023-04-23T06:06:04;96589.33;;;17.06;46.65
61814;BME280;57055;-35.296;149.168;2023-04-23T06:08:33;96592.56;;;17.08;46.99
61814;BME280;57055;-35.296;149.168;2023-04-23T06:11:02;96595.56;;;17.11;47.43
61814;BME280;57055;-35.296;149.168;2023-04-23T06:13:30;96601.96;;;17.12;47.67
61814;BME280;57055;-35.296;149.168;2023-04-23T06:16:00;96608.70;;;16.97;47.40
61814;BME280;57055;-35.296;149.168;2023-04-23T06:18:29;96608.81;;;16.88;48.17
61814;BME280;57055;-35.296;149.168;2023-04-23T06:20:58;96610.65;;;16.77;47.98
61814;BME280;57055;-35.296;149.168;2023-04-23T06:23:27;96610.93;;;16.90;47.90
61814;BME280;57055;-35.296;149.168;2023-04-23T06:25:56;96611.70;;;16.83;48.70
61814;BME280;57055;-35.296;149.168;2023-04-23T06:28:24;96612.93;;;16.92;48.61
61814;BME280;57055;-35.296;149.168;2023-04-23T06:30:54;96614.81;;;16.54;49.01
61814;BME280;57055;-35.296;149.168;2023-04-23T06:33:22;96616.91;;;16.48;49.93
61814;BME280;57055;-35.296;149.168;2023-04-23T06:35:51;96617.88;;;16.23;50.35
61814;BME280;57055;-35.296;149.168;2023-04-23T06:38:19;96617.56;;;16.31;50.45
61814;BME280;57055;-35.296;149.168;2023-04-23T06:40:48;96623.52;;;16.23;50.28
61814;BME280;57055;-35.296;149.168;2023-04-23T06:43:33;96626.06;;;16.36;50.87
61814;BME280;57055;-35.296;149.168;2023-04-23T06:46:02;96624.51;;;16.27;51.26
61814;BME280;57055;-35.296;149.168;2023-04-23T06:48:31;96622.97;;;15.91;51.53
61814;BME280;57055;-35.296;149.168;2023-04-23T06:51:00;96627.72;;;15.90;51.94
61814;BME280;57055;-35.296;149.168;2023-04-23T06:53:29;96635.43;;;15.79;52.69
61814;BME280;57055;-35.296;149.168;2023-04-23T06:55:58;96635.26;;;16.00;53.22
61814;BME280;57055;-35.296;149.168;2023-04-23T06:58:28;96631.75;;;15.62;53.82
61814;BME280;57055;-35.296;149.168;2023-04-23T07:00:57;96635.48;;;15.86;53.91
61814;BME280;57055;-35.296;149.168;2023-04-23T07:03:27;96636.64;;;15.80;54.27
61814;BME280;57055;-35.296;149.168;2023-04-23T07:05:55;96638.76;;;15.78;54.63
61814;BME280;57055;-35.296;149.168;2023-04-23T07:08:24;96640.57;;;15.68;54.93
61814;BME280;57055;-35.296;149.168;2023-04-23T07:10:53;96644.05;;;15.87;55.23
61814;BME280;57055;-35.296;149.168;2023-04-23T07:13:21;96640.36;;;15.68;55.33
61814;BME280;57055;-35.296;149.168;2023-04-23T07:15:50;96637.77;;;15.59;55.69
61814;BME280;57055;-35.296;149.168;2023-04-23T07:18:19;96639.01;;;15.58;55.33
61814;BME280;57055;-35.296;149.168;2023-04-23T07:20:47;96644.93;;;15.50;54.90
61814;BME280;57055;-35.296;149.168;2023-04-23T07:23:16;96649.10;;;15.63;54.94
61814;BME280;57055;-35.296;149.168;2023-04-23T07:25:45;96654.51;;;15.38;55.18
61814;BME280;57055;-35.296;149.168;2023-04-23T07:28:14;96656.35;;;15.49;55.34
61814;BME280;57055;-35.296;149.168;2023-04-23T07:30:43;96657.16;;;15.23;55.46
61814;BME280;57055;-35.296;149.168;2023-04-23T07:33:12;96657.95;;;15.38;55.68
61814;BME280;57055;-35.296;149.168;2023-04-23T07:35:40;96668.12;;;15.08;55.86
61814;BME280;57055;-35.296;149.168;2023-04-23T07:38:10;96668.15;;;15.09;55.90
61814;BME280;57055;-35.296;149.168;2023-04-23T07:40:38;96671.46;;;15.12;56.14
61814;BME280;57055;-35.296;149.168;2023-04-23T07:43:07;96671.28;;;15.15;56.04
61814;BME280;57055;-35.296;149.168;2023-04-23T07:45:36;96680.91;;;15.55;56.45
61814;BME280;57055;-35.296;149.168;2023-04-23T07:48:05;96685.27;;;14.92;56.61
61814;BME280;57055;-35.296;149.168;2023-04-23T07:50:34;96686.65;;;15.34;56.13
61814;BME280;57055;-35.296;149.168;2023-04-23T07:53:03;96687.03;;;15.06;55.88
61814;BME280;57055;-35.296;149.168;2023-04-23T07:55:32;96690.33;;;15.29;55.89
61814;BME280;57055;-35.296;149.168;2023-04-23T07:58:01;96692.34;;;15.27;56.11
61814;BME280;57055;-35.296;149.168;2023-04-23T08:00:30;96695.97;;;14.84;56.59
61814;BME280;57055;-35.296;149.168;2023-04-23T08:02:59;96698.66;;;14.76;56.90
61814;BME280;57055;-35.296;149.168;2023-04-23T08:05:27;96695.16;;;14.94;57.06
61814;BME280;57055;-35.296;149.168;2023-04-23T08:07:56;96701.18;;;14.84;57.25
61814;BME280;57055;-35.296;149.168;2023-04-23T08:10:25;96705.82;;;14.79;57.33
61814;BME280;57055;-35.296;149.168;2023-04-23T08:12:54;96710.93;;;14.72;57.42
61814;BME280;57055;-35.296;149.168;2023-04-23T08:15:23;96713.92;;;14.71;57.51
61814;BME280;57055;-35.296;149.168;2023-04-23T08:17:52;96718.00;;;14.81;57.85
61814;BME280;57055;-35.296;149.168;2023-04-23T08:20:21;96716.36;;;14.52;58.02
61814;BME280;57055;-35.296;149.168;2023-04-23T08:22:50;96722.87;;;14.45;58.16
61814;BME280;57055;-35.296;149.168;2023-04-23T08:25:19;96729.48;;;14.38;58.34
61814;BME280;57055;-35.296;149.168;2023-04-23T08:27:48;96732.33;;;14.49;58.70
61814;BME280;57055;-35.296;149.168;2023-04-23T08:30:17;96729.54;;;14.29;58.74
61814;BME280;57055;-35.296;149.168;2023-04-23T08:32:49;96741.96;;;14.51;58.89
61814;BME280;57055;-35.296;149.168;2023-04-23T08:35:19;96748.14;;;14.41;59.02
61814;BME280;57055;-35.296;149.168;2023-04-23T08:37:48;96745.71;;;14.17;58.95
61814;BME280;57055;-35.296;149.168;2023-04-23T08:40:17;96746.14;;;14.15;59.00
61814;BME280;57055;-35.296;149.168;2023-04-23T08:42:49;96751.83;;;14.32;59.13
61814;BME280;57055;-35.296;149.168;2023-04-23T08:45:22;96749.92;;;14.21;59.38
61814;BME280;57055;-35.296;149.168;2023-04-23T08:47:51;96752.61;;;14.36;59.58
61814;BME280;57055;-35.296;149.168;2023-04-23T08:50:20;96754.68;;;14.12;59.57
61814;BME280;57055;-35.296;149.168;2023-04-23T08:52:52;96755.53;;;14.10;59.81
61814;BME280;57055;-35.296;149.168;2023-04-23T08:55:22;96758.80;;;13.79;60.01
61814;BME280;57055;-35.296;149.168;2023-04-23T08:57:51;96756.71;;;13.92;60.09
61814;BME280;57055;-35.296;149.168;2023-04-23T09:00:21;96756.37;;;13.85;60.21
61814;BME280;57055;-35.296;149.168;2023-04-23T09:02:50;96760.21;;;13.75;60.42
61814;BME280;57055;-35.296;149.168;2023-04-23T09:05:20;96759.13;;;14.01;60.31
61814;BME280;57055;-35.296;149.168;2023-04-23T09:07:49;96755.89;;;13.79;60.26
61814;BME280;57055;-35.296;149.168;2023-04-23T09:10:18;96756.84;;;13.69;60.30
61814;BME280;57055;-35.296;149.168;2023-04-23T09:12:47;96760.72;;;13.70;60.17
61814;BME280;57055;-35.296;149.168;2023-04-23T09:15:16;96761.92;;;13.90;60.43
61814;BME280;57055;-35.296;149.168;2023-04-23T09:17:47;96766.03;;;13.78;60.72
61814;BME280;57055;-35.296;149.168;2023-04-23T09:20:16;96763.10;;;13.66;60.85
61814;BME280;57055;-35.296;149.168;2023-04-23T09:22:47;96760.46;;;13.37;61.07
61814;BME280;57055;-35.296;149.168;2023-04-23T09:25:17;96764.39;;;13.55;61.10
61814;BME280;57055;-35.296;149.168;2023-04-23T09:27:47;96768.52;;;13.55;61.13
61814;BME280;57055;-35.296;149.168;2023-04-23T09:30:18;96766.57;;;13.53;61.11
61814;BME280;57055;-35.296;149.168;2023-04-23T09:32:48;96765.66;;;13.47;61.20
61814;BME280;57055;-35.296;149.168;2023-04-23T09:35:17;96770.54;;;13.43;61.20
61814;BME280;57055;-35.296;149.168;2023-04-23T09:37:48;96773.14;;;13.42;61.03
61814;BME280;57055;-35.296;149.168;2023-04-23T09:40:20;96776.97;;;13.38;61.09
61814;BME280;57055;-35.296;149.168;2023-04-23T09:42:51;96780.48;;;13.43;60.96
61814;BME280;57055;-35.296;149.168;2023-04-23T09:45:20;96777.71;;;13.49;60.93
61814;BME280;57055;-35.296;149.168;2023-04-23T09:47:51;96780.91;;;13.51;60.88
61814;BME280;57055;-35.296;149.168;2023-04-23T09:50:32;96783.30;;;13.46;60.99
61814;BME280;57055;-35.296;149.168;2023-04-23T09:53:01;96781.40;;;13.43;61.02
61814;BME280;57055;-35.296;149.168;2023-04-23T09:55:32;96786.63;;;13.41;61.14
61814;BME280;57055;-35.296;149.168;2023-04-23T09:58:02;96791.75;;;13.46;61.03
61814;BME280;57055;-35.296;149.168;2023-04-23T10:00:36;96791.44;;;13.38;61.24
61814;BME280;57055;-35.296;149.168;2023-04-23T10:03:06;96798.37;;;13.37;61.21
61814;BME280;57055;-35.296;149.168;2023-04-23T10:05:39;96802.84;;;13.37;61.11
61814;BME280;57055;-35.296;149.168;2023-04-23T10:08:08;96804.57;;;13.31;61.23
61814;BME280;57055;-35.296;149.168;2023-04-23T10:10:38;96806.64;;;13.30;61.21
61814;BME280;57055;-35.296;149.168;2023-04-23T10:13:08;96814.39;;;13.25;61.38
61814;BME280;57055;-35.296;149.168;2023-04-23T10:15:37;96811.44;;;13.20;61.50
61814;BME280;57055;-35.296;149.168;2023-04-23T10:18:07;96814.85;;;13.14;61.61
61814;BME280;57055;-35.296;149.168;2023-04-23T10:20:36;96813.61;;;13.36;61.78
61814;BME280;57055;-35.296;149.168;2023-04-23T10:23:05;96815.59;;;13.02;61.94
61814;BME280;57055;-35.296;149.168;2023-04-23T10:25:39;96822.25;;;13.00;62.08
61814;BME280;57055;-35.296;149.168;2023-04-23T10:28:09;96825.03;;;13.01;62.05
61814;BME280;57055;-35.296;149.168;2023-04-23T10:30:38;96829.17;;;13.00;62.03
61814;BME280;57055;-35.296;149.168;2023-04-23T10:33:08;96833.77;;;13.01;62.02
61814;BME280;57055;-35.296;149.168;2023-04-23T10:35:39;96833.05;;;12.94;62.23
61814;BME280;57055;-35.296;149.168;2023-04-23T10:38:08;96831.38;;;12.93;62.32
61814;BME280;57055;-35.296;149.168;2023-04-23T10:40:38;96833.71;;;12.94;62.33
61814;BME280;57055;-35.296;149.168;2023-04-23T10:43:09;96838.90;;;13.06;62.05
61814;BME280;57055;-35.296;149.168;2023-04-23T10:45:37;96841.58;;;13.09;62.07
61814;BME280;57055;-35.296;149.168;2023-04-23T10:48:06;96843.70;;;13.08;62.16
61814;BME280;57055;-35.296;149.168;2023-04-23T10:50:36;96841.01;;;13.01;62.31
61814;BME280;57055;-35.296;149.168;2023-04-23T10:53:06;96840.44;;;13.05;62.24
61814;BME280;57055;-35.296;149.168;2023-04-23T10:55:47;96843.91;;;12.97;62.43
61814;BME280;57055;-35.296;149.168;2023-04-23T10:58:15;96843.41;;;12.97;62.39
61814;BME280;57055;-35.296;149.168;2023-04-23T11:00:45;96847.68;;;13.27;62.31
61814;BME280;57055;-35.296;149.168;2023-04-23T11:03:36;96849.76;;;12.96;62.66
61814;BME280;57055;-35.296;149.168;2023-04-23T11:06:06;96850.79;;;12.91;62.87
61814;BME280;57055;-35.296;149.168;2023-04-23T11:08:36;96857.50;;;12.89;62.95
61814;BME280;57055;-35.296;149.168;2023-04-23T11:11:08;96853.57;;;12.89;62.84
61814;BME280;57055;-35.296;149.168;2023-04-23T11:13:51;96854.64;;;12.90;62.76
61814;BME280;57055;-35.296;149.168;2023-04-23T11:16:21;96856.12;;;12.96;62.71
61814;BME280;57055;-35.296;149.168;2023-04-23T11:19:09;96854.57;;;12.95;62.93
61814;BME280;57055;-35.296;149.168;2023-04-23T11:22:45;96856.88;;;13.24;62.92
61814;BME280;57055;-35.296;149.168;2023-04-23T11:25:19;96853.46;;;13.00;62.98
61814;BME280;57055;-35.296;149.168;2023-04-23T11:27:50;96857.47;;;13.03;62.92
61814;BME280;57055;-35.296;149.168;2023-04-23T11:30:20;96861.51;;;12.99;63.27
61814;BME280;57055;-35.296;149.168;2023-04-23T11:32:51;96860.36;;;13.21;63.57
61814;BME280;57055;-35.296;149.168;2023-04-23T11:35:23;96862.36;;;13.21;63.45
61814;BME280;57055;-35.296;149.168;2023-04-23T11:37:52;96865.15;;;12.95;63.60
61814;BME280;57055;-35.296;149.168;2023-04-23T11:40:23;96864.61;;;13.37;63.76
61814;BME280;57055;-35.296;149.168;2023-04-23T11:42:52;96866.50;;;12.88;63.66
61814;BME280;57055;-35.296;149.168;2023-04-23T11:45:23;96869.65;;;12.92;63.52
61814;BME280;57055;-35.296;149.168;2023-04-23T11:47:54;96867.78;;;13.26;63.36
61814;BME280;57055;-35.296;149.168;2023-04-23T11:50:24;96867.00;;;13.20;63.62
61814;BME280;57055;-35.296;149.168;2023-04-23T11:52:53;96865.31;;;12.87;63.68
61814;BME280;57055;-35.296;149.168;2023-04-23T11:55:23;96864.53;;;12.87;63.64
61814;BME280;57055;-35.296;149.168;2023-04-23T11:57:52;96865.23;;;13.27;63.92
61814;BME280;57055;-35.296;149.168;2023-04-23T12:00:23;96864.17;;;12.74;63.82
61814;BME280;57055;-35.296;149.168;2023-04-23T12:02:53;96861.05;;;12.70;64.00
61814;BME280;57055;-35.296;149.168;2023-04-23T12:05:28;96867.50;;;13.24;63.79
61814;BME280;57055;-35.296;149.168;2023-04-23T12:08:07;96866.39;;;12.97;63.86
61814;BME280;57055;-35.296;149.168;2023-04-23T12:10:45;96867.77;;;12.90;63.94
61814;BME280;57055;-35.296;149.168;2023-04-23T12:13:16;96866.95;;;12.62;63.88
61814;BME280;57055;-35.296;149.168;2023-04-23T12:15:47;96868.28;;;12.96;63.62
61814;BME280;57055;-35.296;149.168;2023-04-23T12:18:16;96869.33;;;12.71;63.49
61814;BME280;57055;-35.296;149.168;2023-04-23T12:20:45;96870.69;;;13.18;63.33
61814;BME280;57055;-35.296;149.168;2023-04-23T12:23:14;96870.79;;;12.61;63.58
61814;BME280;57055;-35.296;149.168;2023-04-23T12:25:43;96867.71;;;12.61;63.49
61814;BME280;57055;-35.296;149.168;2023-04-23T12:28:12;96867.97;;;12.86;63.44
61814;BME280;57055;-35.296;149.168;2023-04-23T12:30:44;96871.76;;;12.46;63.77
61814;BME280;57055;-35.296;149.168;2023-04-23T12:33:13;96866.76;;;12.70;63.81
61814;BME280;57055;-35.296;149.168;2023-04-23T12:35:43;96865.96;;;12.50;63.57
61814;BME280;57055;-35.296;149.168;2023-04-23T12:38:22;96864.35;;;12.76;63.53
61814;BME280;57055;-35.296;149.168;2023-04-23T12:40:52;96866.38;;;12.71;63.52
61814;BME280;57055;-35.296;149.168;2023-04-23T12:43:22;96868.65;;;12.37;63.48